createdAt,value
2018-08-10T00:02:03.283Z,0.60
2018-08-10T00:04:32.704Z,0.73
2018-08-10T00:07:02.110Z,0.50
2018-08-10T00:09:31.996Z,0.60
2018-08-10T00:12:02.068Z,0.73
2018-08-10T00:14:32.052Z,1.20
2018-08-10T00:17:01.792Z,0.53
2018-08-10T00:19:31.216Z,0.77
2018-08-10T00:22:00.630Z,0.77
2018-08-10T00:24:30.046Z,0.60
2018-08-10T00:26:59.476Z,0.70
2018-08-10T00:29:28.912Z,0.70
2018-08-10T00:31:58.660Z,0.90
2018-08-10T00:34:28.346Z,0.60
2018-08-10T00:36:57.775Z,0.93
2018-08-10T00:39:27.578Z,0.70
2018-08-10T00:41:57.188Z,0.70
2018-08-10T00:44:26.958Z,0.63
2018-08-10T00:46:56.566Z,0.60
2018-08-10T00:49:26.436Z,0.90
2018-08-10T00:51:56.432Z,0.80
2018-08-10T00:54:26.140Z,0.80
2018-08-10T00:56:55.902Z,0.80
2018-08-10T00:59:26.994Z,0.90
2018-08-10T01:01:56.802Z,0.80
2018-08-10T01:04:26.446Z,1.20
2018-08-10T01:06:55.824Z,0.60
2018-08-10T01:09:25.418Z,0.70
2018-08-10T01:11:54.816Z,0.97
2018-08-10T01:14:24.214Z,0.93
2018-08-10T01:16:54.218Z,0.63
2018-08-10T01:19:23.657Z,0.80
2018-08-10T01:21:53.394Z,1.03
2018-08-10T01:24:23.471Z,0.90
2018-08-10T01:26:53.084Z,1.53
2018-08-10T01:29:22.497Z,0.80
2018-08-10T01:31:52.274Z,0.73
2018-08-10T01:34:22.224Z,1.10
2018-08-10T01:36:51.933Z,1.10
2018-08-10T01:39:21.318Z,1.03
2018-08-10T01:41:50.750Z,1.33
2018-08-10T01:44:20.518Z,1.10
2018-08-10T01:46:50.492Z,0.87
2018-08-10T01:49:20.460Z,1.17
2018-08-10T01:51:50.098Z,0.90
2018-08-10T01:54:19.838Z,0.87
2018-08-10T01:56:49.438Z,0.97
2018-08-10T01:59:18.858Z,0.80
2018-08-10T02:01:48.978Z,1.20
2018-08-10T02:04:18.404Z,1.00
2018-08-10T02:06:48.120Z,0.97
2018-08-10T02:09:18.114Z,1.10
2018-08-10T02:11:47.744Z,0.87
2018-08-10T02:14:17.566Z,1.10
2018-08-10T02:16:47.550Z,0.50
2018-08-10T02:19:17.159Z,0.67
2018-08-10T02:21:46.936Z,0.40
2018-08-10T02:24:16.602Z,0.50
2018-08-10T02:26:46.102Z,0.70
2018-08-10T02:29:15.556Z,0.40
2018-08-10T02:31:44.988Z,0.40
2018-08-10T02:34:14.728Z,0.70
2018-08-10T02:36:44.736Z,0.33
2018-08-10T02:39:14.336Z,0.40
2018-08-10T02:41:43.752Z,0.70
2018-08-10T02:44:13.126Z,0.40
2018-08-10T02:46:42.530Z,0.40
2018-08-10T02:49:12.289Z,0.30
2018-08-10T02:51:42.043Z,0.40
2018-08-10T02:54:11.461Z,0.57
2018-08-10T02:56:40.841Z,0.30
2018-08-10T02:59:10.366Z,0.50
2018-08-10T03:01:39.768Z,0.50
2018-08-10T03:04:09.850Z,0.60
2018-08-10T03:06:39.480Z,0.50
2018-08-10T03:09:12.822Z,0.57
2018-08-10T03:11:42.479Z,0.83
2018-08-10T03:14:12.270Z,0.40
2018-08-10T03:16:41.912Z,0.80
2018-08-10T03:19:11.664Z,0.40
2018-08-10T03:21:41.248Z,0.80
2018-08-10T03:24:11.014Z,0.40
2018-08-10T03:26:40.654Z,0.40
2018-08-10T03:29:10.032Z,0.50
2018-08-10T03:31:39.449Z,0.60
2018-08-10T03:34:09.249Z,0.53
2018-08-10T03:36:38.879Z,0.60
2018-08-10T03:39:11.109Z,0.80
2018-08-10T03:41:40.929Z,0.90
2018-08-10T03:44:10.723Z,0.53
2018-08-10T03:46:40.385Z,1.43
2018-08-10T03:49:09.784Z,0.70
2018-08-10T03:51:39.177Z,0.70
2018-08-10T03:54:08.605Z,0.73
2018-08-10T03:56:38.351Z,0.80
2018-08-10T03:59:07.951Z,0.80
2018-08-10T04:01:37.353Z,0.70
2018-08-10T04:04:07.102Z,1.00
2018-08-10T04:06:36.780Z,0.90
2018-08-10T04:09:10.345Z,0.60
2018-08-10T04:11:40.005Z,1.07
2018-08-10T04:14:09.450Z,1.00
2018-08-10T04:16:38.842Z,0.90
2018-08-10T04:19:08.290Z,0.77
2018-08-10T04:21:38.055Z,0.80
2018-08-10T04:24:07.709Z,0.70
2018-08-10T04:26:37.149Z,1.20
2018-08-10T04:29:06.523Z,0.80
2018-08-10T04:31:36.395Z,1.00
2018-08-10T04:34:06.014Z,0.70
2018-08-10T04:36:35.825Z,0.90
2018-08-10T04:39:07.923Z,1.03
2018-08-10T04:41:37.326Z,1.10
2018-08-10T04:44:06.759Z,0.80
2018-08-10T04:46:36.568Z,0.60
2018-08-10T04:49:06.249Z,1.00
2018-08-10T04:51:35.641Z,1.60
2018-08-10T04:54:05.073Z,1.03
2018-08-10T04:56:34.839Z,0.83
2018-08-10T04:59:04.652Z,0.77
2018-08-10T05:01:34.207Z,0.50
2018-08-10T05:04:04.068Z,0.80
2018-08-10T05:06:33.745Z,1.20
2018-08-10T05:09:03.899Z,0.60
2018-08-10T05:11:33.568Z,0.80
2018-08-10T05:14:03.719Z,0.77
2018-08-10T05:16:33.715Z,0.70
2018-08-10T05:19:04.829Z,0.83
2018-08-10T05:21:34.793Z,0.47
2018-08-10T05:24:04.459Z,0.80
2018-08-10T05:26:34.224Z,0.90
2018-08-10T05:29:03.879Z,1.10
2018-08-10T05:31:33.327Z,0.90
2018-08-10T05:34:02.724Z,1.30
2018-08-10T05:36:33.811Z,0.93
2018-08-10T05:39:04.760Z,0.70
2018-08-10T05:41:34.843Z,0.90
2018-08-10T05:44:04.777Z,0.60
2018-08-10T05:46:35.989Z,0.63
2018-08-10T05:49:05.639Z,0.83
2018-08-10T05:51:35.391Z,2.63
2018-08-10T05:54:05.051Z,1.03
2018-08-10T05:56:34.802Z,1.00
2018-08-10T05:59:04.871Z,0.70
2018-08-10T06:01:34.527Z,0.50
2018-08-10T06:04:05.303Z,0.97
2018-08-10T06:06:34.811Z,0.90
2018-08-10T06:09:08.979Z,0.80
2018-08-10T06:11:39.637Z,0.60
2018-08-10T06:14:09.097Z,0.80
2018-08-10T06:16:38.539Z,0.77
2018-08-10T06:19:08.580Z,0.60
2018-08-10T06:21:38.057Z,0.70
2018-08-10T06:24:07.793Z,0.70
2018-08-10T06:26:37.993Z,0.70
2018-08-10T06:29:08.352Z,0.90
2018-08-10T06:31:37.798Z,0.70
2018-08-10T06:34:07.555Z,0.57
2018-08-10T06:36:37.211Z,0.77
2018-08-10T06:39:07.833Z,0.83
2018-08-10T06:41:37.521Z,0.53
2018-08-10T06:44:08.223Z,0.57
2018-08-10T06:46:37.675Z,0.70
2018-08-10T06:49:07.091Z,1.17
2018-08-10T06:54:38.795Z,0.50
2018-08-10T06:57:08.612Z,1.37
2018-08-10T06:59:38.608Z,0.70
2018-08-10T07:02:08.331Z,0.90
2018-08-10T07:04:37.725Z,0.67
2018-08-10T07:07:07.501Z,0.87
2018-08-10T07:09:37.257Z,0.70
2018-08-10T07:12:06.642Z,0.73
2018-08-10T07:14:36.094Z,0.83
2018-08-10T07:17:05.875Z,0.90
2018-08-10T07:19:35.511Z,0.60
2018-08-10T07:22:04.973Z,1.10
2018-08-10T07:24:34.813Z,1.00
2018-08-10T07:27:04.944Z,0.90
2018-08-10T07:29:34.585Z,1.10
2018-08-10T07:32:03.991Z,1.27
2018-08-10T07:34:34.227Z,1.90
2018-08-10T07:37:05.707Z,0.70
2018-08-10T07:39:35.335Z,0.80
2018-08-10T07:42:04.747Z,0.70
2018-08-10T07:44:34.249Z,0.70
2018-08-10T07:47:03.768Z,0.90
2018-08-10T07:49:33.665Z,0.93
2018-08-10T07:52:03.400Z,1.13
2018-08-10T07:54:32.848Z,0.90
2018-08-10T07:57:02.275Z,1.10
2018-08-10T07:59:31.691Z,0.70
2018-08-10T08:02:01.230Z,0.80
2018-08-10T08:04:31.165Z,0.90
2018-08-10T08:07:02.375Z,0.70
2018-08-10T08:09:31.984Z,0.90
2018-08-10T08:12:01.423Z,1.13
2018-08-10T08:14:30.974Z,0.70
2018-08-10T08:17:00.420Z,1.40
2018-08-10T08:19:30.033Z,0.97
2018-08-10T08:22:15.952Z,0.70
2018-08-10T08:24:45.802Z,0.70
2018-08-10T08:27:17.128Z,0.80
2018-08-10T08:29:46.734Z,0.90
2018-08-10T08:32:16.568Z,1.00
2018-08-10T08:34:46.308Z,0.90
2018-08-10T08:37:16.175Z,0.80
2018-08-10T08:39:51.757Z,0.73
2018-08-10T08:42:21.555Z,1.13
2018-08-10T08:46:02.007Z,0.70
2018-08-10T08:48:34.821Z,0.87
2018-08-10T08:51:07.047Z,3.00
2018-08-10T08:53:37.001Z,1.10
2018-08-10T08:56:09.301Z,0.90
2018-08-10T08:58:39.951Z,0.97
2018-08-10T09:01:09.986Z,1.20
2018-08-10T09:03:44.962Z,0.77
2018-08-10T09:06:15.082Z,1.00
2018-08-10T09:09:48.022Z,1.67
2018-08-10T09:12:18.153Z,0.90
2018-08-10T09:14:51.193Z,1.00
2018-08-10T09:17:21.139Z,1.07
2018-08-10T09:19:50.815Z,0.90
2018-08-10T09:22:20.644Z,1.23
2018-08-10T09:24:50.463Z,1.27
2018-08-10T09:27:20.364Z,1.20
2018-08-10T09:29:50.446Z,1.00
2018-08-10T09:32:20.339Z,0.93
2018-08-10T09:34:50.337Z,1.10
2018-08-10T09:37:20.940Z,1.00
2018-08-10T09:39:50.633Z,0.50
2018-08-10T09:42:20.068Z,1.20
2018-08-10T09:44:49.625Z,0.80
2018-08-10T09:47:19.347Z,0.87
2018-08-10T09:49:50.044Z,1.50
2018-08-10T09:52:20.945Z,1.10
2018-08-10T09:55:28.971Z,0.87
2018-08-10T09:58:03.530Z,1.27
2018-08-10T10:00:38.861Z,1.20
2018-08-10T10:03:14.217Z,1.50
2018-08-10T10:05:44.122Z,1.70
2018-08-10T10:08:14.419Z,1.30
2018-08-10T10:10:44.424Z,1.30
2018-08-10T10:13:13.981Z,1.13
2018-08-10T10:15:43.457Z,1.10
2018-08-10T10:18:14.163Z,1.07
2018-08-10T10:20:44.183Z,1.27
2018-08-10T10:23:13.622Z,1.40
2018-08-10T10:25:43.176Z,1.20
2018-08-10T10:28:12.997Z,1.30
2018-08-10T10:30:42.843Z,1.30
2018-08-10T10:33:12.267Z,1.30
2018-08-10T10:35:41.759Z,1.30
2018-08-10T10:38:12.617Z,1.40
2018-08-10T10:40:42.437Z,1.40
2018-08-10T10:43:12.104Z,1.77
2018-08-10T10:45:41.598Z,1.17
2018-08-10T10:48:11.514Z,1.40
2018-08-10T10:50:41.604Z,1.37
2018-08-10T10:53:11.315Z,1.77
2018-08-10T10:55:40.730Z,1.10
2018-08-10T10:58:10.736Z,1.80
2018-08-10T11:00:40.892Z,1.47
2018-08-10T11:03:10.543Z,1.80
2018-08-10T11:05:40.358Z,1.50
2018-08-10T11:08:10.052Z,1.20
2018-08-10T11:10:39.874Z,1.20
2018-08-10T11:13:09.669Z,1.20
2018-08-10T11:15:39.156Z,1.43
2018-08-10T11:18:09.908Z,1.20
2018-08-10T11:20:39.764Z,1.10
2018-08-10T11:23:09.509Z,1.40
2018-08-10T11:25:39.199Z,1.23
2018-08-10T11:28:09.124Z,1.60
2018-08-10T11:30:39.088Z,1.10
2018-08-10T11:33:08.816Z,0.90
2018-08-10T11:35:38.299Z,1.37
2018-08-10T11:38:08.076Z,1.17
2018-08-10T11:40:37.920Z,1.37
2018-08-10T11:43:09.471Z,1.10
2018-08-10T11:45:39.010Z,0.83
2018-08-10T11:48:08.657Z,1.00
2018-08-10T11:50:38.921Z,0.80
2018-08-10T11:53:09.043Z,1.07
2018-08-10T11:55:38.788Z,0.60
2018-08-10T11:58:08.636Z,1.10
2018-08-10T12:00:38.869Z,1.00
2018-08-10T12:03:08.545Z,0.90
2018-08-10T12:05:38.171Z,0.97
2018-08-10T12:08:08.719Z,1.13
2018-08-10T12:10:40.244Z,1.13
2018-08-10T12:13:10.414Z,1.07
2018-08-10T12:15:41.042Z,1.07
2018-08-10T12:18:10.725Z,0.73
2018-08-10T12:20:41.046Z,1.17
2018-08-10T12:23:11.153Z,0.93
2018-08-10T12:25:41.945Z,0.93
2018-08-10T12:28:11.684Z,1.40
2018-08-10T12:30:41.369Z,1.10
2018-08-10T12:33:11.176Z,1.20
2018-08-10T12:35:40.686Z,1.00
2018-08-10T12:38:10.533Z,1.10
2018-08-10T12:40:40.324Z,1.10
2018-08-10T12:43:10.236Z,0.80
2018-08-10T12:45:41.642Z,1.07
2018-08-10T12:48:11.470Z,1.10
2018-08-10T12:50:41.664Z,1.23
2018-08-10T12:53:12.344Z,1.27
2018-08-10T12:55:42.700Z,1.00
2018-08-10T12:58:12.850Z,0.90
2018-08-10T13:00:42.799Z,1.70
2018-08-10T13:03:12.471Z,1.20
2018-08-10T13:05:41.911Z,1.23
2018-08-10T13:08:11.944Z,1.60
2018-08-10T13:10:42.180Z,1.43
2018-08-10T13:13:13.017Z,1.63
2018-08-10T13:15:42.747Z,1.90
2018-08-10T13:18:12.542Z,2.30
2018-08-10T13:20:42.167Z,1.60
2018-08-10T13:23:11.594Z,2.07
2018-08-10T13:25:40.995Z,1.70
2018-08-10T13:28:10.416Z,1.80
2018-08-10T13:30:39.861Z,1.60
2018-08-10T13:33:09.321Z,1.40
2018-08-10T13:35:38.764Z,1.50
2018-08-10T13:38:08.723Z,1.40
2018-08-10T13:40:39.017Z,1.57
2018-08-10T13:43:09.192Z,1.20
2018-08-10T13:45:38.906Z,1.40
2018-08-10T13:48:08.425Z,1.33
2018-08-10T13:50:39.752Z,1.23
2018-08-10T13:53:10.115Z,1.47
2018-08-10T13:55:39.824Z,1.17
2018-08-10T13:58:09.276Z,1.27
2018-08-10T14:00:39.214Z,1.10
2018-08-10T14:03:08.943Z,0.93
2018-08-10T14:05:38.425Z,1.53
2018-08-10T14:08:08.266Z,1.37
2018-08-10T14:10:37.715Z,1.20
2018-08-10T14:13:07.959Z,1.00
2018-08-10T14:15:38.068Z,1.30
2018-08-10T14:18:07.893Z,1.30
2018-08-10T14:20:40.893Z,1.67
2018-08-10T14:23:10.585Z,1.40
2018-08-10T14:25:40.030Z,1.33
2018-08-10T14:28:10.511Z,1.70
2018-08-10T14:30:40.281Z,1.63
2018-08-10T14:33:11.108Z,1.80
2018-08-10T14:35:40.869Z,1.53
2018-08-10T14:38:10.390Z,1.50
2018-08-10T14:40:40.265Z,1.70
2018-08-10T14:43:10.240Z,1.47
2018-08-10T14:45:40.946Z,1.60
2018-08-10T14:48:11.058Z,1.80
2018-08-10T14:50:42.537Z,1.40
2018-08-10T14:53:13.811Z,1.70
2018-08-10T14:55:43.868Z,2.00
2018-08-10T14:58:13.971Z,1.70
2018-08-10T15:00:44.064Z,1.40
2018-08-10T15:03:13.807Z,1.80
2018-08-10T15:05:43.297Z,2.10
2018-08-10T15:08:12.805Z,1.73
2018-08-10T15:10:42.332Z,1.90
2018-08-10T15:13:11.919Z,1.60
2018-08-10T15:15:41.357Z,1.33
2018-08-10T15:18:11.223Z,1.40
2018-08-10T15:20:42.533Z,1.50
2018-08-10T15:23:13.736Z,1.53
2018-08-10T15:25:43.353Z,1.50
2018-08-10T15:28:12.968Z,2.07
2018-08-10T15:30:42.405Z,1.63
2018-08-10T15:33:12.221Z,1.20
2018-08-10T15:35:41.851Z,1.40
2018-08-10T15:38:12.307Z,1.50
2018-08-10T15:40:42.602Z,1.50
2018-08-10T15:43:13.893Z,1.60
2018-08-10T15:45:43.865Z,1.60
2018-08-10T15:48:13.578Z,1.43
2018-08-10T15:50:43.375Z,1.60
2018-08-10T15:53:13.395Z,1.27
2018-08-10T15:55:44.237Z,1.43
2018-08-10T15:58:14.090Z,2.17
2018-08-10T16:00:43.752Z,1.47
2018-08-10T16:03:13.254Z,1.60
2018-08-10T16:05:42.841Z,1.43
2018-08-10T16:08:12.675Z,1.90
2018-08-10T16:10:42.473Z,1.40
2018-08-10T16:13:13.034Z,1.50
2018-08-10T16:15:42.457Z,1.50
2018-08-10T16:18:12.391Z,1.73
2018-08-10T16:20:42.039Z,2.23
2018-08-10T16:23:11.487Z,1.47
2018-08-10T16:25:41.067Z,1.80
2018-08-10T16:28:10.791Z,2.10
2018-08-10T16:30:40.204Z,2.00
2018-08-10T16:33:09.635Z,1.70
2018-08-10T16:35:39.446Z,1.67
2018-08-10T16:38:09.131Z,1.90
2018-08-10T16:40:38.617Z,1.83
2018-08-10T16:43:08.529Z,1.70
2018-08-10T16:45:38.159Z,1.90
2018-08-10T16:48:08.013Z,2.20
2018-08-10T16:50:37.722Z,2.07
2018-08-10T16:53:07.193Z,2.10
2018-08-10T16:55:36.639Z,1.70
2018-08-10T16:58:06.393Z,1.80
2018-08-10T17:00:36.267Z,2.00
2018-08-10T17:03:06.010Z,1.90
2018-08-10T17:05:35.569Z,2.00
2018-08-10T17:08:04.941Z,1.80
2018-08-10T17:10:34.417Z,2.30
2018-08-10T17:13:03.889Z,2.53
2018-08-10T17:15:33.681Z,2.37
2018-08-10T17:18:03.945Z,2.30
2018-08-10T17:20:33.967Z,2.47
2018-08-10T17:23:03.637Z,2.03
2018-08-10T17:25:33.539Z,2.03
2018-08-10T17:28:03.294Z,2.30
2018-08-10T17:30:33.475Z,2.30
2018-08-10T17:33:03.139Z,1.97
2018-08-10T17:35:32.534Z,2.33
2018-08-10T17:38:02.496Z,2.00
2018-08-10T17:40:32.108Z,2.10
2018-08-10T17:43:01.525Z,2.17
2018-08-10T17:45:30.931Z,2.10
2018-08-10T17:48:00.356Z,2.57
2018-08-10T17:50:30.251Z,2.23
2018-08-10T17:53:00.031Z,2.10
2018-08-10T17:55:30.318Z,2.07
2018-08-10T17:57:59.980Z,2.40
2018-08-10T18:00:29.470Z,1.70
2018-08-10T18:02:59.284Z,2.63
2018-08-10T18:05:28.909Z,2.70
2018-08-10T18:07:58.354Z,2.07
2018-08-10T18:10:27.893Z,2.30
2018-08-10T18:12:57.850Z,2.37
2018-08-10T18:15:27.512Z,2.23
2018-08-10T18:17:57.321Z,2.00
2018-08-10T18:20:27.240Z,1.93
2018-08-10T18:22:56.981Z,2.10
2018-08-10T18:25:26.866Z,2.80
2018-08-10T18:27:56.768Z,2.53
2018-08-10T18:30:26.780Z,2.47
2018-08-10T18:32:56.412Z,2.67
2018-08-10T18:35:25.819Z,2.37
2018-08-10T18:37:55.280Z,2.10
2018-08-10T18:40:24.717Z,3.10
2018-08-10T18:42:54.200Z,2.20
2018-08-10T18:45:23.608Z,2.37
2018-08-10T18:47:53.005Z,3.50
2018-08-10T18:50:22.503Z,3.60
2018-08-10T18:52:52.269Z,2.37
2018-08-10T18:55:22.961Z,2.00
2018-08-10T18:57:53.161Z,2.37
2018-08-10T19:00:23.644Z,2.40
2018-08-10T19:02:53.976Z,1.93
2018-08-10T19:05:23.649Z,2.50
2018-08-10T19:07:53.067Z,2.47
2018-08-10T19:10:24.590Z,2.33
2018-08-10T19:12:54.068Z,2.47
2018-08-10T19:15:23.494Z,2.80
2018-08-10T19:17:53.405Z,2.53
2018-08-10T19:20:23.082Z,2.40
2018-08-10T19:22:52.914Z,2.43
2018-08-10T19:25:23.514Z,2.10
2018-08-10T19:27:53.377Z,2.60
2018-08-10T19:30:24.109Z,2.40
2018-08-10T19:32:53.524Z,2.70
2018-08-10T19:35:22.986Z,2.60
2018-08-10T19:37:52.814Z,2.37
2018-08-10T19:40:22.476Z,2.90
2018-08-10T19:42:52.288Z,2.60
2018-08-10T19:45:22.002Z,2.57
2018-08-10T19:47:51.827Z,2.60
2018-08-10T19:50:23.387Z,3.73
2018-08-10T19:52:53.310Z,2.50
2018-08-10T19:55:22.783Z,2.73
2018-08-10T19:57:52.191Z,3.93
2018-08-10T20:00:21.636Z,2.77
2018-08-10T20:02:51.790Z,3.23
2018-08-10T20:05:21.238Z,2.70
2018-08-10T20:07:51.092Z,3.10
2018-08-10T20:10:21.244Z,2.87
2018-08-10T20:12:51.318Z,2.80
2018-08-10T20:15:21.484Z,2.83
2018-08-10T20:17:51.488Z,2.80
2018-08-10T20:20:21.212Z,2.50
2018-08-10T20:22:50.680Z,3.17
2018-08-10T20:25:20.160Z,3.00
2018-08-10T20:27:49.615Z,3.30
2018-08-10T20:30:19.538Z,2.70
2018-08-10T20:32:49.920Z,2.53
2018-08-10T20:35:19.949Z,2.63
2018-08-10T20:37:49.929Z,2.50
2018-08-10T20:40:20.146Z,2.30
2018-08-10T20:42:50.171Z,2.90
2018-08-10T20:45:21.280Z,2.70
2018-08-10T20:47:50.931Z,2.53
2018-08-10T20:50:24.326Z,2.63
2018-08-10T20:52:53.730Z,2.23
2018-08-10T20:55:23.157Z,2.80
2018-08-10T20:57:53.022Z,2.23
2018-08-10T21:00:22.729Z,2.90
2018-08-10T21:02:52.630Z,2.90
2018-08-10T21:05:22.266Z,2.20
2018-08-10T21:07:52.140Z,2.80
2018-08-10T21:10:21.787Z,2.37
2018-08-10T21:12:51.425Z,2.70
2018-08-10T21:15:20.866Z,2.50
2018-08-10T21:17:50.393Z,2.47
2018-08-10T21:20:19.866Z,2.40
2018-08-10T21:22:49.298Z,3.10
2018-08-10T21:25:18.744Z,2.83
2018-08-10T21:27:48.214Z,2.40
2018-08-10T21:30:18.900Z,3.40
2018-08-10T21:32:49.260Z,2.90
2018-08-10T21:35:18.893Z,2.80
2018-08-10T21:37:48.817Z,3.20
2018-08-10T21:40:18.386Z,3.03
2018-08-10T21:42:48.184Z,2.70
2018-08-10T21:45:17.842Z,3.00
2018-08-10T21:47:47.632Z,3.33
2018-08-10T21:50:17.333Z,3.10
2018-08-10T21:52:47.121Z,3.20
2018-08-10T21:55:16.791Z,2.70
2018-08-10T21:57:46.574Z,2.40
2018-08-10T22:00:52.448Z,3.17
2018-08-10T22:03:23.503Z,2.60
2018-08-10T22:05:53.476Z,2.90
2018-08-10T22:08:23.983Z,2.90
2018-08-10T22:10:53.995Z,2.30
2018-08-10T22:13:29.097Z,1.97
2018-08-10T22:16:04.047Z,2.60
2018-08-10T22:18:39.080Z,2.13
2018-08-10T22:21:08.865Z,1.90
2018-08-10T22:23:38.476Z,2.60
2018-08-10T22:26:08.343Z,1.73
2018-08-10T22:28:37.982Z,2.20
2018-08-10T22:31:07.852Z,1.73
2018-08-10T22:33:37.464Z,1.70
2018-08-10T22:36:06.908Z,1.63
2018-08-10T22:38:36.319Z,2.07
2018-08-10T22:41:05.765Z,1.90
2018-08-10T22:43:35.460Z,2.00
2018-08-10T22:46:05.128Z,1.77
2018-08-10T22:48:34.550Z,1.97
2018-08-10T22:51:03.973Z,1.73
2018-08-10T22:53:33.392Z,2.10
2018-08-10T22:56:02.824Z,2.20
2018-08-10T22:58:32.316Z,2.13
2018-08-10T23:01:01.816Z,1.70
2018-08-10T23:03:31.229Z,1.87
2018-08-10T23:06:00.618Z,2.13
2018-08-10T23:08:30.496Z,2.07
2018-08-10T23:11:00.035Z,2.00
2018-08-10T23:13:30.183Z,2.00
2018-08-10T23:15:59.842Z,2.60
2018-08-10T23:18:29.269Z,2.07
2018-08-10T23:20:59.077Z,2.40
2018-08-10T23:23:28.682Z,1.83
2018-08-10T23:25:58.442Z,2.10
2018-08-10T23:28:28.412Z,2.00
2018-08-10T23:30:58.101Z,2.47
2018-08-10T23:33:27.510Z,2.40
2018-08-10T23:35:56.923Z,2.80
2018-08-10T23:38:26.359Z,3.40
2018-08-10T23:40:56.161Z,2.50
2018-08-10T23:43:25.821Z,2.63
2018-08-10T23:45:55.239Z,2.30
2018-08-10T23:48:24.669Z,3.00
2018-08-10T23:50:54.087Z,3.27
2018-08-10T23:53:23.850Z,2.50
2018-08-10T23:55:53.537Z,2.97
2018-08-10T23:58:22.964Z,3.60
